Home > Products > Valid Products > MTR

000
SAUS45 KGGW 271449
MTRJDN
METAR KJDN 271448Z AUTO 10006KT M17/M19 A3007 RMK AO1 SLP249
T11671194 56015





000
SAUS45 KGGW 271349
MTRJDN
METAR KJDN 271348Z AUTO 08006KT M18/M22 A3008 RMK AO1 SLP253
T11831217





000
SAUS45 KGGW 271349
MTRJDN
METAR KJDN 271348Z AUTO 08006KT M18/M22 A3008 RMK AO1 SLP253
T11831217





000
SAUS45 KGGW 271249
MTRJDN
METAR KJDN 271248Z AUTO 08006KT M19/M22 A3010 RMK AO1 SLP258
T11891217





000
SAUS45 KGGW 271149
MTRJDN
METAR KJDN 271148Z AUTO 07003KT M18/M22 A3012 RMK AO1 SLP262
T11831217 11161 21183 58023





000
SAUS45 KGGW 270949
MTRJDN
METAR KJDN 270948Z AUTO 00000KT M17/M21 A3017 RMK AO1 SLP278
T11721206





000
SAUS45 KGGW 270849
MTRJDN
METAR KJDN 270848Z AUTO 00000KT M17/M21 A3019 RMK AO1 SLP286
T11721206 56025





000
SAUS45 KGGW 270749
MTRJDN
METAR KJDN 270748Z AUTO 16008KT M17/M20 A3021 RMK AO1 SLP293
T11671200





000
SAUS45 KGGW 270649
MTRJDN
METAR KJDN 270648Z AUTO 16007KT M17/M20 A3024 RMK AO1 SLP303
T11671200 411001217





000
SAUS45 KGGW 270549
MTRJDN
METAR KJDN 270548Z AUTO 00000KT M17/M21 A3027 RMK AO1 SLP319
T11721206 11106 21172 58026





000
SAUS45 KGGW 270452
MTRJDN
METAR KJDN 270448Z A
NO CARRIER

RING

CONNECT 1200

BOIMTRSNT ALL
TTAA00 KSNT 270451
METAR KSNT 270451Z AUTO 30003KT M02/M07 A2985 RMK AO1 SLP099
T10221072





000
SAUS45 KGGW 270349
MTRJDN
METAR KJDN 270348Z AUTO 17006KT M17/M20 A3033 RMK AO1 SLP340
T11671200





000
SAUS45 KGGW 270249
MTRJDN
METAR KJDN 270248Z AUTO 00000KT M16/M19 A3035 RMK AO1 SLP351
T11611189 58013





000
SAUS45 KGGW 270149
MTRJDN
METAR KJDN 270148Z AUTO 19003KT M16/M19 A3038 RMK AO1 SLP361
T11561189





000
SAUS45 KGGW 270049
MTRJDN
METAR KJDN 270048Z AUTO 16005KT M12/M20 A3038 RMK AO1 SLP359
T11221200





000
SAUS45 KGGW 262349
MTRJDN
METAR KJDN 262348Z AUTO 18008KT M11/M21 A3040 RMK AO1 SLP360
T11061211 11100 21150 56017





000
SAUS45 KGGW 262349
MTRJDN
METAR KJDN 262348Z AUTO 18008KT M11/M21 A3040 RMK AO1 SLP360
T11061211 11100 21150 56017





000
SAUS45 KGGW 262250
MTRJDN
METAR KJDN 262248Z AUTO 14006KT M10/M20 A3041 RMK AO1 SLP364
T11001200





000
SAUS45 KGGW 262149
MTRJDN
METAR KJDN 262148Z AUTO VRB03KT M11/M21 A3043 RMK AO1 SLP368
T11061206





000
SAUS45 KGGW 262149
MTRJDN
METAR KJDN 262148Z AUTO VRB03KT M11/M21 A3043 RMK AO1 SLP368
T11061206





000
SAUS45 KGGW 262049
MTRJDN
METAR KJDN 262048Z AUTO 19005KT M11/M21 A3045 RMK AO1 SLP375
T11111206 58021





000
SAUS45 KGGW 262049
MTRJDN
METAR KJDN 262048Z AUTO 19005KT M11/M21 A3045 RMK AO1 SLP375
T11111206 58021





000
SAUS45 KGGW 261950
MTRJDN
METAR KJDN 261948Z AUTO VRB05KT M12/M22 A3047 RMK AO1 SLP383
T11171222





000
SAUS45 KGGW 261849
MTRJDN
METAR KJDN 261848Z AUTO 00000KT M13/M19 A3050 RMK AO1 SLP393
T11281194





000
SAUS45 KGGW 261750
MTRJDN
METAR KJDN 261748Z AUTO VRB03KT M15/M19 A3052 RMK AO1 SLP400
T11501194 11144 21217 58002





000
SAUS45 KGGW 261750
MTRJDN
METAR KJDN 261748Z AUTO VRB03KT M15/M19 A3052 RMK AO1 SLP400
T11501194 11144 21217 58002





000
SAUS45 KGGW 261649
MTRJDN
METAR KJDN 261648Z AUTO 00000KT M16/M19 A3052 RMK AO1 SLP400
T11561194





000
SAUS45 KGGW 261449
MTRJDN
METAR KJDN 261448Z AUTO 00000KT M19/M22 A3052 RMK AO1 SLP406
T11891217 52008





000
SAUS45 KGGW 261449
MTRJDN
METAR KJDN 261448Z AUTO 00000KT M19/M22 A3052 RMK AO1 SLP406
T11891217 52008





000
SAUS45 KGGW 261349
MTRJDN
METAR KJDN 261348Z AUTO 00000KT M21/M23 A3051 RMK AO1 SLP403
T12111233





000
SAUS45 KGGW 261349
MTRJDN
METAR KJDN 261348Z AUTO 00000KT M21/M23 A3051 RMK AO1 SLP403
T12111233





000
SAUS45 KGGW 261249
MTRJDN
METAR KJDN 261248Z AUTO 00000KT M21/M24 A3051 RMK AO1 SLP402
T12111239





000
SAUS45 KGGW 261249
MTRJDN
METAR KJDN 261248Z AUTO 00000KT M21/M24 A3051 RMK AO1 SLP402
T12111239





000
SAUS45 KGGW 261149
MTRJDN
METAR KJDN 261148Z AUTO 02007KT M20/M22 A3050 RMK AO1 SLP396 70001
T12001217 11139 21200 53001





000
SAUS45 KGGW 261149
MTRJDN
METAR KJDN 261148Z AUTO 02007KT M20/M22 A3050 RMK AO1 SLP396 70001
T12001217 11139 21200 53001





000
SAUS45 KGGW 261049
MTRJDN
METAR KJDN 261048Z AUTO 35003KT M19/M21 A3049 RMK AO1 SLP390
T11891211





000
SAUS45 KGGW 261049
MTRJDN
METAR KJDN 261048Z AUTO 35003KT M19/M21 A3049 RMK AO1 SLP390
T11891211





000
SAUS45 KGGW 260949
MTRJDN
METAR KJDN 260948Z AUTO 08005KT M17/M19 A3048 RMK AO1 SLP387
T11721194





000
SAUS45 KGGW 260849
MTRJDN
METAR KJDN 260848Z AUTO 04005KT M17/M20 A3049 RMK AO1 SLP389
T11721200 51006





000
SAUS45 KGGW 260849
MTRJDN
METAR KJDN 260848Z AUTO 04005KT M17/M20 A3049 RMK AO1 SLP389
T11721200 51006





000
SAUS45 KGGW 260749
MTRJDN
METAR KJDN 260748Z AUTO 02010KT M16/M19 A3049 RMK AO1 SLP385
T11561189





000
SAUS45 KGGW 260649
MTRJDN
METAR KJDN 260648Z AUTO 04008KT M15/M18 A3048 RMK AO1 SLP383
T11501183 400221150





000
SAUS45 KGGW 260649
MTRJDN
METAR KJDN 260648Z AUTO 04008KT M15/M18 A3048 RMK AO1 SLP383
T11501183 400221150





000
SAUS45 KGGW 260549
MTRJDN
METAR KJDN 260548Z AUTO 02008KT M14/M17 A3047 RMK AO1 SLP378
T11391167 11106 21139 51011





000
SAUS45 KGGW 260549
MTRJDN
METAR KJDN 260548Z AUTO 02008KT M14/M17 A3047 RMK AO1 SLP378
T11391167 11106 21139 51011





000
SAUS45 KGGW 260449
MTRJDN
METAR KJDN 260448Z AUTO 02006KT M13/M17 A3047 RMK AO1 SLP373
T11281167





000
SAUS45 KGGW 260449
MTRJDN
METAR KJDN 260448Z AUTO 02006KT M13/M17 A3047 RMK AO1 SLP373
T11281167





000
SAUS45 KGGW 260350
MTRJDN
METAR KJDN 260348Z AUTO 01004KT M12/M16 A3045 RMK AO1 SLP366
T11221161





000
SAUS45 KGGW 260149
MTRJDN
METAR KJDN 260148Z AUTO 36004KT M13/M16 A3043 RMK AO1 SLP357
T11281161





000
SAUS45 KGGW 260149
MTRJDN
METAR KJDN 260148Z AUTO 36004KT M13/M16 A3043 RMK AO1 SLP357
T11281161





000
SAUS45 KGGW 260049
MTRJDN
METAR KJDN 260048Z AUTO 36009KT M12/M16 A3042 RMK AO1 SLP352
T11221161





000
SAUS45 KGGW 260049
MTRJDN
METAR KJDN 260048Z AUTO 36009KT M12/M16 A3042 RMK AO1 SLP352
T11221161





000
SAUS45 KGGW 252349
MTRJDN
METAR KJDN 252348Z AUTO 36011KT M11/M16 A3041 RMK AO1 SLP347
T11111156 11078 21111 51017





000
SAUS45 KGGW 252349
MTRJDN
METAR KJDN 252348Z AUTO 36011KT M11/M16 A3041 RMK AO1 SLP347
T11111156 11078 21111 51017





000
SAUS45 KGGW 252249
MTRJDN
METAR KJDN 252248Z AUTO 34013KT M10/M15 A3040 RMK AO1 SLP342
T11001150





000
SAUS45 KGGW 252249
MTRJDN
METAR KJDN 252248Z AUTO 34013KT M10/M15 A3040 RMK AO1 SLP342
T11001150





000
SAUS45 KGGW 252149
MTRJDN
METAR KJDN 252148Z AUTO 36015KT M09/M14 A3038 RMK AO1 SLP331
T10941139





000
SAUS45 KGGW 252149
MTRJDN
METAR KJDN 252148Z AUTO 36015KT M09/M14 A3038 RMK AO1 SLP331
T10941139





000
SAUS45 KGGW 252049
MTRJDN
METAR KJDN 252048Z AUTO 35016KT M09/M13 A3035 RMK AO1 SLP320
T10891133 51027





000
SAUS45 KGGW 251949
MTRJDN
METAR KJDN 251948Z AUTO 36015KT M08/M13 A3034 RMK AO1 SLP314
T10831133





000
SAUS45 KGGW 251849
MTRJDN
METAR KJDN 251848Z AUTO 36018KT M09/M13 A3032 RMK AO1 SLP305
T10941128





000
SAUS45 KGGW 251749
MTRJDN
METAR KJDN 251748Z AUTO 01015KT M09/M13 A3027 RMK AO1 SLP286 60001
T10891128 11039 21089 53051





000
SAUS45 KGGW 251649
MTRJDN
METAR KJDN 251648Z AUTO 04013KT M08/M11 A3020 RMK AO1 SLP264 P0001
T10781106





000
SAUS45 KGGW 251649
MTRJDN
METAR KJDN 251648Z AUTO 04013KT M08/M11 A3020 RMK AO1 SLP264 P0001
T10781106





000
SAUS45 KGGW 251549
MTRJDN
METAR KJDN 251548Z AUTO 05013KT M08/M10 A3015 RMK AO1 SLP242
T10781100





000
SAUS45 KGGW 251449
MTRJDN
METAR KJDN 251448Z AUTO 05013KT M07/M09 A3010 RMK AO1 SLP226
T10671094 53026





000
SAUS45 KGGW 251349
MTRJDN
METAR KJDN 251348Z AUTO 01010KT M06/M08 A3007 RMK AO1 SLP213
T10561083





000
SAUS45 KGGW 251349
MTRJDN
METAR KJDN 251348Z AUTO 01010KT M06/M08 A3007 RMK AO1 SLP213
T10561083





000
SAUS45 KGGW 251249
MTRJDN
METAR KJDN 251248Z AUTO 02015KT M05/M07 A3004 RMK AO1 SLP201
T10501072





000
SAUS45 KGGW 251249
MTRJDN
METAR KJDN 251248Z AUTO 02015KT M05/M07 A3004 RMK AO1 SLP201
T10501072





000
SAUS45 KGGW 251149
MTRJDN
METAR KJDN 251148Z AUTO 36015G23KT M04/M06 A3002 RMK AO1 PRESRR
SLP191 70001 T10391056 10039 21039 53044





000
SAUS45 KGGW 251149
MTRJDN
METAR KJDN 251148Z AUTO 36015G23KT M04/M06 A3002 RMK AO1 PRESRR
SLP191 70001 T10391056 10039 21039 53044





000
SAUS45 KGGW 251049
MTRJDN
METAR KJDN 251048Z AUTO 36019G25KT M02/M04 A2996 RMK AO1 PK WND
35026/1036 SLP169 T10221044





000
SAUS45 KGGW 251049
MTRJDN
METAR KJDN 251048Z AUTO 36019G25KT M02/M04 A2996 RMK AO1 PK WND
35026/1036 SLP169 T10221044





000
SAUS45 KGGW 250949
MTRJDN
METAR KJDN 250948Z AUTO 35017G26KT 00/M03 A2992 RMK AO1 PK WND
35026/0942 SLP148 T00001028





000
SAUS45 KGGW 250849
MTRJDN
METAR KJDN 250848Z AUTO 33014KT 01/M02 A2988 RMK AO1 PK WND
33026/0830 SLP136 T00111022 53027





000
SAUS45 KGGW 250749
MTRJDN
METAR KJDN 250748Z AUTO 33017G28KT 02/M01 A2985 RMK AO1 PK WND
32028/0742 SLP122 T00171006





000
SAUS45 KGGW 250649
MTRJDN
METAR KJDN 250648Z AUTO 30016KT 03/M01 A2982 RMK AO1 SLP110
T00281011 401281044





000
SAUS45 KGGW 250549
MTRJDN
METAR KJDN 250548Z AUTO 30020G26KT 04/M01 A2980 RMK AO1 PK WND
30028/0528 SLP103 60001 T00391006 10083 20028 51018





000
SAUS45 KGGW 250449
MTRJDN
METAR KJDN 250448Z AUTO 30011G19KT 03/01 A2978 RMK AO1 PK WND
34026/0350 SLP101 P0001 T00330011





000
SAUS45 KGGW 250449
MTRJDN
METAR KJDN 250448Z AUTO 30011G19KT 03/01 A2978 RMK AO1 PK WND
34026/0350 SLP101 P0001 T00330011





000
SAUS45 KGGW 250349
MTRJDN
METAR KJDN 250348Z AUTO 34024G29KT 05/00 A2977 RMK AO1 PK WND
34029/0345 SLP102 T00500000





000
SAUS45 KGGW 250349
MTRJDN
METAR KJDN 250348Z AUTO 34024G29KT 05/00 A2977 RMK AO1 PK WND
34029/0345 SLP102 T00500000





000
SAUS45 KGGW 250249
MTRJDN
METAR KJDN 250248Z AUTO 32010KT 06/M02 A2974 RMK AO1 SLP094
T00561017 53006





000
SAUS45 KGGW 250249
MTRJDN
METAR KJDN 250248Z AUTO 32010KT 06/M02 A2974 RMK AO1 SLP094
T00561017 53006





000
SAUS45 KGGW 250149
MTRJDN
METAR KJDN 250148Z AUTO 32013KT 07/M02 A2973 RMK AO1 SLP092
T00671017





000
SAUS45 KGGW 250049
MTRJDN
METAR KJDN 250048Z AUTO 29006KT 06/M03 A2972 RMK AO1 SLP089
T00611028





000
SAUS45 KGGW 242350
MTRJDN
METAR KJDN 242348Z AUTO 29010KT 08/M03 A2972 RMK AO1 SLP086
T00831028 10128 20083 56010





000
SAUS45 KGGW 242249
MTRJDN
METAR KJDN 242248Z AUTO 30011KT 09/M03 A2973 RMK AO1 SLP089
T00941028





000
SAUS45 KGGW 242149
MTRJDN
METAR KJDN 242148Z AUTO 29015KT 11/M04 A2974 RMK AO1 SLP086
T01111039





000
SAUS45 KGGW 242149
MTRJDN
METAR KJDN 242148Z AUTO 29015KT 11/M04 A2974 RMK AO1 SLP086
T01111039





000
SAUS45 KGGW 242049
MTRJDN
METAR KJDN 242048Z AUTO 29013G22KT 11/M03 A2975 RMK AO1 PK WND
28026/2003 SLP093 T01061028 58027





000
SAUS45 KGGW 241949
MTRJDN
METAR KJDN 241948Z AUTO 29018G23KT 12/M04 A2978 RMK AO1 SLP102
T01221039





000
SAUS45 KGGW 241949
MTRJDN
METAR KJDN 241948Z AUTO 29018G23KT 12/M04 A2978 RMK AO1 SLP102
T01221039





000
SAUS45 KGGW 241849
MTRJDN
METAR KJDN 241848Z AUTO 27010KT 12/M02 A2981 RMK AO1 SLP113
T01171017





000
SAUS45 KGGW 241849
MTRJDN
METAR KJDN 241848Z AUTO 27010KT 12/M02 A2981 RMK AO1 SLP113
T01171017





000
SAUS45 KGGW 241749
MTRJDN
METAR KJDN 241748Z AUTO 25011KT 09/M02 A2984 RMK AO1 SLP124
T00891022 10094 21044 58035





000
SAUS45 KGGW 241649
MTRJDN
METAR KJDN 241648Z AUTO 25006KT 07/M01 A2987 RMK AO1 SLP134
T00671006





000
SAUS45 KGGW 241549
MTRJDN
METAR KJDN 241548Z AUTO 27004KT 03/M01 A2993 RMK AO1 SLP158
T00281011





    US Dept of Commerce
    National Oceanic and Atmospheric Administration
    National Weather Service
    1325 East West Highway
    Silver Spring, MD 20910
    Page Author: NWS Internet Services Team
Disclaimer
Information Quality
Credits
Glossary
Privacy Policy
Freedom of Information Act (FOIA)
About Us
Career Opportunities